createdAt,value
2022-09-12T00:01:19.652Z,81.68
2022-09-12T00:03:46.976Z,82.51
2022-09-12T00:06:33.926Z,82.82
2022-09-12T00:09:06.101Z,83.18
2022-09-12T00:11:36.441Z,83.40
2022-09-12T00:14:04.667Z,83.22
2022-09-12T00:16:33.846Z,83.92
2022-09-12T00:19:01.315Z,82.88
2022-09-12T00:21:28.048Z,81.60
2022-09-12T00:23:55.206Z,81.75
2022-09-12T00:26:22.338Z,82.31
2022-09-12T00:28:49.676Z,83.22
2022-09-12T00:31:19.277Z,84.49
2022-09-12T00:33:46.820Z,84.70
2022-09-12T00:36:16.603Z,84.43
2022-09-12T00:38:44.460Z,84.13
2022-09-12T00:41:18.502Z,84.07
2022-09-12T00:43:58.300Z,84.33
2022-09-12T00:46:46.889Z,85.37
2022-09-12T00:49:34.793Z,85.13
2022-09-12T00:52:09.737Z,84.48
2022-09-12T00:54:46.363Z,84.04
2022-09-12T00:57:16.170Z,84.28
2022-09-12T00:59:48.848Z,84.28
2022-09-12T01:02:15.798Z,84.82
2022-09-12T01:04:44.498Z,84.75
2022-09-12T01:07:12.674Z,84.25
2022-09-12T01:09:41.678Z,84.92
2022-09-12T01:12:08.670Z,86.17
2022-09-12T01:14:35.699Z,86.34
2022-09-12T01:17:02.494Z,86.51
2022-09-12T01:19:47.898Z,86.39
2022-09-12T01:22:31.738Z,85.34
2022-09-12T01:25:29.355Z,85.19
2022-09-12T01:28:25.453Z,85.88
2022-09-12T01:31:05.763Z,86.63
2022-09-12T01:33:41.083Z,86.88
2022-09-12T01:36:24.130Z,85.63
2022-09-12T01:39:00.473Z,84.97
2022-09-12T01:41:29.732Z,86.24
2022-09-12T01:43:59.392Z,86.16
2022-09-12T01:46:41.334Z,85.84
2022-09-12T01:49:23.012Z,85.94
2022-09-12T01:52:10.938Z,85.97
2022-09-12T01:54:47.963Z,86.76
2022-09-12T01:57:22.543Z,86.51
2022-09-12T01:59:54.227Z,86.28
2022-09-12T02:02:38.479Z,86.57
2022-09-12T02:05:18.517Z,87.09
2022-09-12T02:07:50.365Z,87.58
2022-09-12T02:10:32.751Z,87.29
2022-09-12T02:13:32.277Z,87.15
2022-09-12T02:16:05.915Z,86.83
2022-09-12T02:18:34.147Z,87.38
2022-09-12T02:21:01.514Z,86.75
2022-09-12T02:23:31.314Z,86.59
2022-09-12T02:26:06.505Z,85.11
2022-09-12T02:28:37.873Z,85.43
2022-09-12T02:31:20.821Z,86.15
2022-09-12T02:33:59.783Z,86.50
2022-09-12T02:36:43.408Z,85.77
2022-09-12T02:39:10.084Z,85.66
2022-09-12T02:41:37.046Z,86.43
2022-09-12T02:44:04.690Z,86.36
2022-09-12T02:46:48.611Z,87.09
2022-09-12T02:49:17.140Z,86.31
2022-09-12T02:51:45.565Z,86.40
2022-09-12T02:54:14.465Z,86.10
2022-09-12T02:56:43.757Z,85.80
2022-09-12T02:59:15.742Z,85.04
2022-09-12T03:01:58.808Z,84.44
2022-09-12T03:04:34.416Z,84.07
2022-09-12T03:07:19.265Z,85.02
2022-09-12T03:10:19.802Z,85.39
2022-09-12T03:12:49.406Z,86.52
2022-09-12T03:15:33.949Z,85.59
2022-09-12T03:18:19.708Z,84.85
2022-09-12T03:21:09.585Z,85.44
2022-09-12T03:23:51.484Z,85.41
2022-09-12T03:26:31.072Z,85.81
2022-09-12T03:28:59.314Z,86.87
2022-09-12T03:31:26.069Z,87.67
2022-09-12T03:33:52.662Z,88.82
2022-09-12T03:36:25.231Z,87.96
2022-09-12T03:38:52.851Z,88.02
2022-09-12T03:41:19.912Z,87.07
2022-09-12T03:43:47.049Z,86.14
2022-09-12T03:46:14.190Z,86.36
2022-09-12T03:48:41.688Z,87.14
2022-09-12T03:51:10.211Z,87.00
2022-09-12T03:53:36.964Z,86.00
2022-09-12T03:56:08.733Z,85.07
2022-09-12T03:58:36.315Z,85.22
2022-09-12T04:01:12.481Z,84.59
2022-09-12T04:03:44.040Z,83.97
2022-09-12T04:06:12.518Z,83.89
2022-09-12T04:08:39.278Z,84.01
2022-09-12T04:11:14.816Z,84.14
2022-09-12T04:13:44.083Z,84.52
2022-09-12T04:16:11.468Z,84.78
2022-09-12T04:18:38.566Z,84.88
2022-09-12T04:21:07.998Z,84.80
2022-09-12T04:23:35.391Z,84.50
2022-09-12T04:26:03.418Z,84.41
2022-09-12T04:28:30.278Z,83.86
2022-09-12T04:31:01.813Z,83.97
2022-09-12T04:33:28.434Z,83.74
2022-09-12T04:35:55.018Z,83.41
2022-09-12T04:38:21.666Z,83.58
2022-09-12T04:40:49.279Z,83.30
2022-09-12T04:43:17.788Z,83.32
2022-09-12T04:45:44.490Z,82.36
2022-09-12T04:48:11.302Z,81.68
2022-09-12T04:50:38.129Z,82.68
2022-09-12T04:53:04.756Z,84.07
2022-09-12T04:55:35.460Z,84.14
2022-09-12T04:58:02.369Z,84.82
2022-09-12T05:00:29.033Z,85.35
2022-09-12T05:02:55.865Z,85.32
2022-09-12T05:05:22.632Z,85.61
2022-09-12T05:07:49.297Z,85.71
2022-09-12T05:10:16.388Z,84.79
2022-09-12T05:12:43.082Z,84.73
2022-09-12T05:15:10.024Z,85.13
2022-09-12T05:17:36.744Z,84.66
2022-09-12T05:20:04.066Z,84.19
2022-09-12T05:22:30.847Z,85.03
2022-09-12T05:24:57.462Z,84.89
2022-09-12T05:27:24.390Z,84.76
2022-09-12T05:29:51.379Z,84.21
2022-09-12T05:32:18.022Z,84.32
2022-09-12T05:34:44.818Z,84.10
2022-09-12T05:37:11.371Z,84.34
2022-09-12T05:39:37.976Z,84.12
2022-09-12T05:42:04.896Z,83.86
2022-09-12T05:44:31.584Z,83.50
2022-09-12T05:46:58.176Z,83.12
2022-09-12T05:49:24.875Z,83.41
2022-09-12T05:51:51.610Z,83.26
2022-09-12T05:54:20.345Z,82.71
2022-09-12T05:56:48.266Z,82.33
2022-09-12T05:59:18.371Z,82.17
2022-09-12T06:01:45.732Z,79.99
2022-09-12T06:04:12.880Z,80.75
2022-09-12T06:06:42.432Z,81.41
2022-09-12T06:09:10.211Z,81.77
2022-09-12T06:11:42.751Z,82.04
2022-09-12T06:14:11.596Z,82.52
2022-09-12T06:16:38.848Z,83.42
2022-09-12T06:19:15.901Z,83.23
2022-09-12T06:21:42.623Z,83.75
2022-09-12T06:24:09.332Z,84.51
2022-09-12T06:26:36.423Z,84.85
2022-09-12T06:29:03.744Z,84.35
2022-09-12T06:31:33.767Z,83.12
2022-09-12T06:34:03.080Z,82.11
2022-09-12T06:36:48.904Z,80.68
2022-09-12T06:39:17.928Z,80.25
2022-09-12T06:41:45.245Z,79.68
2022-09-12T06:44:22.271Z,79.57
2022-09-12T06:46:49.381Z,79.08
2022-09-12T06:49:17.546Z,78.41
2022-09-12T06:51:44.392Z,77.73
2022-09-12T06:54:16.717Z,76.76
2022-09-12T06:56:44.152Z,75.79
2022-09-12T06:59:10.955Z,76.94
2022-09-12T07:01:37.943Z,76.91
2022-09-12T07:04:04.970Z,76.30
2022-09-12T07:06:37.267Z,75.98
2022-09-12T07:09:06.000Z,75.10
2022-09-12T07:11:35.235Z,74.82
2022-09-12T07:14:03.805Z,73.32
2022-09-12T07:16:31.401Z,73.38
2022-09-12T07:19:00.516Z,73.25
2022-09-12T07:21:28.228Z,72.29
2022-09-12T07:23:57.708Z,71.79
2022-09-12T07:26:27.132Z,71.24
2022-09-12T07:29:07.959Z,71.60
2022-09-12T07:31:42.268Z,70.31
2022-09-12T07:34:09.237Z,70.58
2022-09-12T07:36:36.336Z,70.65
2022-09-12T07:39:03.444Z,70.59
2022-09-12T07:41:31.929Z,68.36
2022-09-12T07:44:00.311Z,67.91
2022-09-12T07:46:29.518Z,69.44
2022-09-12T07:48:58.246Z,70.15
2022-09-12T07:51:26.480Z,69.45
2022-09-12T07:53:53.137Z,67.91
2022-09-12T07:56:21.618Z,67.50
2022-09-12T07:58:50.283Z,66.99
2022-09-12T08:01:19.722Z,66.77
2022-09-12T08:03:53.370Z,65.73
2022-09-12T08:06:24.116Z,65.48
2022-09-12T08:08:52.519Z,65.96
2022-09-12T08:11:21.201Z,64.94
2022-09-12T08:13:53.062Z,64.76
2022-09-12T08:16:23.538Z,64.26
2022-09-12T08:18:50.482Z,64.18
2022-09-12T08:21:26.100Z,63.10
2022-09-12T08:23:55.214Z,61.99
2022-09-12T08:26:22.080Z,62.49
2022-09-12T08:28:49.643Z,61.11
2022-09-12T08:31:19.647Z,61.63
2022-09-12T08:33:46.470Z,61.54
2022-09-12T08:36:17.244Z,61.80
2022-09-12T08:38:46.220Z,61.67
2022-09-12T08:41:18.716Z,59.57
2022-09-12T08:43:52.024Z,60.60
2022-09-12T08:46:28.809Z,59.88
2022-09-12T08:48:58.261Z,59.61
2022-09-12T08:51:25.404Z,59.55
2022-09-12T08:53:55.900Z,60.20
2022-09-12T08:56:23.155Z,59.03
2022-09-12T08:58:49.969Z,57.31
2022-09-12T09:01:32.650Z,57.27
2022-09-12T09:04:28.114Z,56.19
2022-09-12T09:07:07.198Z,56.45
2022-09-12T09:09:50.018Z,56.16
2022-09-12T09:12:36.436Z,56.48
2022-09-12T09:15:35.949Z,56.55
2022-09-12T09:18:25.212Z,55.76
2022-09-12T09:21:02.592Z,54.40
2022-09-12T09:23:47.093Z,55.92
2022-09-12T09:26:40.460Z,55.02
2022-09-12T09:29:17.769Z,54.83
2022-09-12T09:31:49.140Z,55.01
2022-09-12T09:34:21.131Z,53.99
2022-09-12T09:37:16.238Z,53.39
2022-09-12T09:40:18.123Z,52.38
2022-09-12T09:42:57.027Z,53.48
2022-09-12T09:45:27.628Z,53.41
2022-09-12T09:48:03.678Z,53.09
2022-09-12T09:50:30.471Z,52.65
2022-09-12T09:52:59.977Z,52.35
2022-09-12T09:55:34.595Z,53.31
2022-09-12T09:58:01.176Z,53.83
2022-09-12T10:00:33.861Z,53.55
2022-09-12T10:03:03.226Z,53.02
2022-09-12T10:05:31.337Z,53.08
2022-09-12T10:07:58.723Z,52.56
2022-09-12T10:10:27.135Z,52.39
2022-09-12T10:13:18.233Z,52.99
2022-09-12T10:16:00.887Z,54.02
2022-09-12T10:18:39.751Z,51.04
2022-09-12T10:21:20.641Z,51.96
2022-09-12T10:23:51.346Z,51.31
2022-09-12T10:26:22.637Z,51.44
2022-09-12T10:28:56.535Z,51.59
2022-09-12T10:31:36.023Z,50.55
2022-09-12T10:34:02.735Z,48.68
2022-09-12T10:36:38.401Z,48.45
2022-09-12T10:39:06.876Z,48.53
2022-09-12T10:41:41.461Z,48.30
2022-09-12T10:44:14.628Z,48.59
2022-09-12T10:46:42.122Z,48.59
2022-09-12T10:49:26.995Z,49.20
2022-09-12T10:51:55.184Z,49.47
2022-09-12T10:54:26.006Z,48.90
2022-09-12T10:56:59.932Z,48.82
2022-09-12T11:00:02.342Z,48.35
2022-09-12T11:02:41.976Z,47.37
2022-09-12T11:05:22.910Z,46.78
2022-09-12T11:08:14.364Z,46.33
2022-09-12T11:10:44.587Z,47.64
2022-09-12T11:13:29.976Z,47.06
2022-09-12T11:16:50.495Z,45.94
2022-09-12T11:19:33.779Z,45.34
2022-09-12T11:22:18.919Z,46.68
2022-09-12T11:25:14.312Z,45.41
2022-09-12T11:27:51.528Z,46.24
2022-09-12T11:30:18.446Z,44.98
2022-09-12T11:32:56.038Z,45.69
2022-09-12T11:35:31.545Z,45.57
2022-09-12T11:38:28.475Z,45.20
2022-09-12T11:41:04.757Z,45.49
2022-09-12T11:43:49.414Z,46.15
2022-09-12T11:46:38.440Z,45.02
2022-09-12T11:49:13.498Z,45.55
2022-09-12T11:51:53.650Z,44.60
2022-09-12T11:54:41.571Z,43.93
2022-09-12T11:57:16.895Z,43.80
2022-09-12T11:59:49.920Z,43.42
2022-09-12T12:02:27.819Z,44.14
2022-09-12T12:05:03.513Z,43.15
2022-09-12T12:07:45.414Z,43.79
2022-09-12T12:10:26.999Z,44.18
2022-09-12T12:12:56.107Z,44.84
2022-09-12T12:15:25.322Z,44.72
2022-09-12T12:18:08.283Z,44.60
2022-09-12T12:20:36.035Z,44.47
2022-09-12T12:23:03.975Z,45.72
2022-09-12T12:25:55.762Z,45.88
2022-09-12T12:28:41.280Z,46.46
2022-09-12T12:31:09.843Z,44.82
2022-09-12T12:33:39.443Z,44.59
2022-09-12T12:36:10.359Z,44.31
2022-09-12T12:38:39.196Z,44.45
2022-09-12T12:41:25.780Z,43.69
2022-09-12T12:43:56.219Z,45.83
2022-09-12T12:46:25.471Z,46.20
2022-09-12T12:48:56.672Z,43.68
2022-09-12T12:51:31.875Z,44.07
2022-09-12T12:54:01.038Z,47.14
2022-09-12T12:56:42.389Z,44.76
2022-09-12T12:59:20.055Z,45.42
2022-09-12T13:01:54.962Z,42.92
2022-09-12T13:04:25.911Z,44.23
2022-09-12T13:06:57.701Z,44.67
2022-09-12T13:09:30.831Z,43.14
2022-09-12T13:12:05.069Z,44.54
2022-09-12T13:14:50.564Z,43.96
2022-09-12T13:17:26.001Z,43.12
2022-09-12T13:20:30.551Z,42.71
2022-09-12T13:22:58.161Z,42.67
2022-09-12T13:25:36.524Z,41.40
2022-09-12T13:28:14.878Z,45.59
2022-09-12T13:30:54.807Z,44.11
2022-09-12T13:33:36.642Z,42.62
2022-09-12T13:36:09.862Z,42.80
2022-09-12T13:38:57.779Z,42.40
2022-09-12T13:41:26.981Z,44.33
2022-09-12T13:43:53.907Z,43.93
2022-09-12T13:46:33.905Z,42.42
2022-09-12T13:49:06.998Z,43.33
2022-09-12T13:51:33.992Z,43.35
2022-09-12T13:54:04.602Z,41.77
2022-09-12T13:56:31.792Z,41.99
2022-09-12T13:59:01.005Z,42.37
2022-09-12T14:01:45.824Z,42.38
2022-09-12T14:04:43.560Z,44.71
2022-09-12T14:07:25.548Z,42.99
2022-09-12T14:09:58.749Z,43.58
2022-09-12T14:12:36.403Z,40.34
2022-09-12T14:15:03.692Z,43.17
2022-09-12T14:17:36.684Z,41.67
2022-09-12T14:20:18.500Z,40.76
2022-09-12T14:22:49.342Z,38.21
2022-09-12T14:25:24.422Z,37.95
2022-09-12T14:27:56.593Z,38.77
2022-09-12T14:30:32.441Z,37.76
2022-09-12T14:33:11.294Z,38.29
2022-09-12T14:35:45.095Z,38.19
2022-09-12T14:38:11.799Z,36.31
2022-09-12T14:40:48.546Z,38.29
2022-09-12T14:43:28.284Z,36.44
2022-09-12T14:45:59.550Z,37.87
2022-09-12T14:48:29.783Z,36.56
2022-09-12T14:50:56.524Z,35.73
2022-09-12T14:53:30.363Z,36.63
2022-09-12T14:56:09.831Z,34.76
2022-09-12T14:58:37.929Z,35.44
2022-09-12T15:01:07.998Z,34.03
2022-09-12T15:03:51.827Z,32.48
2022-09-12T15:06:31.256Z,35.14
2022-09-12T15:09:02.163Z,35.42
2022-09-12T15:11:29.551Z,33.74
2022-09-12T15:13:56.659Z,37.51
2022-09-12T15:16:23.339Z,37.44
2022-09-12T15:18:50.094Z,38.68
2022-09-12T15:21:19.350Z,36.81
2022-09-12T15:23:49.681Z,36.00
2022-09-12T15:26:22.467Z,36.29
2022-09-12T15:28:50.377Z,37.21
2022-09-12T15:31:30.599Z,36.83
2022-09-12T15:34:00.021Z,37.06
2022-09-12T15:36:28.732Z,35.61
2022-09-12T15:38:55.667Z,38.86
2022-09-12T15:41:30.906Z,40.93
2022-09-12T15:43:57.782Z,40.75
2022-09-12T15:46:24.558Z,39.64
2022-09-12T15:48:51.169Z,37.29
2022-09-12T15:51:20.147Z,37.40
2022-09-12T15:53:48.379Z,37.98
2022-09-12T15:56:17.605Z,40.22
2022-09-12T15:58:57.622Z,40.72
2022-09-12T16:01:26.177Z,39.88
2022-09-12T16:03:52.786Z,39.20
2022-09-12T16:06:19.425Z,36.57
2022-09-12T16:08:46.123Z,39.02
2022-09-12T16:11:22.457Z,40.30
2022-09-12T16:13:49.619Z,38.16
2022-09-12T16:16:16.286Z,38.09
2022-09-12T16:18:43.330Z,38.75
2022-09-12T16:21:14.878Z,41.07
2022-09-12T16:23:43.625Z,39.30
2022-09-12T16:26:10.507Z,39.10
2022-09-12T16:28:37.441Z,38.74
2022-09-12T16:31:06.996Z,39.47
2022-09-12T16:33:34.754Z,38.58
2022-09-12T16:36:03.357Z,38.59
2022-09-12T16:38:31.149Z,39.55
2022-09-12T16:41:02.588Z,38.75
2022-09-12T16:43:30.620Z,41.30
2022-09-12T16:46:05.429Z,38.71
2022-09-12T16:48:33.598Z,39.11
2022-09-12T16:51:03.307Z,39.53
2022-09-12T16:53:31.538Z,39.83
2022-09-12T16:55:58.344Z,41.83
2022-09-12T16:58:25.201Z,42.04
2022-09-12T17:01:07.299Z,42.54
2022-09-12T17:03:35.767Z,40.95
2022-09-12T17:06:08.872Z,42.30
2022-09-12T17:08:41.228Z,42.86
2022-09-12T17:11:10.417Z,42.59
2022-09-12T17:14:00.601Z,43.15
2022-09-12T17:16:26.492Z,43.92
2022-09-12T17:18:54.621Z,42.58
2022-09-12T17:21:22.472Z,43.24
2022-09-12T17:23:49.858Z,43.61
2022-09-12T17:26:16.766Z,43.60
2022-09-12T17:28:44.424Z,44.42
2022-09-12T17:31:14.548Z,42.82
2022-09-12T17:33:44.055Z,43.42
2022-09-12T17:36:15.081Z,43.58
2022-09-12T17:38:42.906Z,43.40
2022-09-12T17:41:16.165Z,42.85
2022-09-12T17:43:45.988Z,42.66
2022-09-12T17:46:13.531Z,42.55
2022-09-12T17:48:41.572Z,42.62
2022-09-12T17:51:09.862Z,42.71
2022-09-12T17:53:36.671Z,42.91
2022-09-12T17:56:05.272Z,42.92
2022-09-12T17:58:33.194Z,44.79
2022-09-12T18:01:20.909Z,45.12
2022-09-12T18:03:48.484Z,45.38
2022-09-12T18:06:15.283Z,46.72
2022-09-12T18:08:43.520Z,46.87
2022-09-12T18:11:10.731Z,46.15
2022-09-12T18:13:37.630Z,46.59
2022-09-12T18:16:08.128Z,47.03
2022-09-12T18:18:36.193Z,47.80
2022-09-12T18:21:05.140Z,48.24
2022-09-12T18:23:32.177Z,47.96
2022-09-12T18:26:08.958Z,48.47
2022-09-12T18:28:38.449Z,48.13
2022-09-12T18:31:11.623Z,48.44
2022-09-12T18:33:38.647Z,49.13
2022-09-12T18:36:07.052Z,48.54
2022-09-12T18:38:35.270Z,48.14
2022-09-12T18:41:10.935Z,47.38
2022-09-12T18:43:37.980Z,47.72
2022-09-12T18:46:11.318Z,47.93
2022-09-12T18:48:38.599Z,48.79
2022-09-12T18:51:10.662Z,49.06
2022-09-12T18:53:39.988Z,49.30
2022-09-12T18:56:12.241Z,49.31
2022-09-12T18:58:42.239Z,49.51
2022-09-12T19:01:21.361Z,50.76
2022-09-12T19:03:48.466Z,50.89
2022-09-12T19:06:21.438Z,50.77
2022-09-12T19:08:50.212Z,50.53
2022-09-12T19:11:17.407Z,50.34
2022-09-12T19:13:46.117Z,50.69
2022-09-12T19:16:16.499Z,50.44
2022-09-12T19:18:44.441Z,49.38
2022-09-12T19:21:17.649Z,49.50
2022-09-12T19:23:45.739Z,49.85
2022-09-12T19:26:14.188Z,49.69
2022-09-12T19:28:42.447Z,49.33
2022-09-12T19:31:12.510Z,50.22
2022-09-12T19:33:41.044Z,50.75
2022-09-12T19:36:33.716Z,50.79
2022-09-12T19:38:58.998Z,51.71
2022-09-12T19:41:26.152Z,51.56
2022-09-12T19:43:53.275Z,52.07
2022-09-12T19:46:22.279Z,51.84
2022-09-12T19:48:49.798Z,51.25
2022-09-12T19:51:17.693Z,51.45
2022-09-12T19:53:44.938Z,51.26
2022-09-12T19:56:13.696Z,51.31
2022-09-12T19:58:45.547Z,51.59
2022-09-12T20:01:28.496Z,51.43
2022-09-12T20:03:58.318Z,51.49
2022-09-12T20:06:26.298Z,52.66
2022-09-12T20:08:53.788Z,52.00
2022-09-12T20:11:23.932Z,52.04
2022-09-12T20:13:51.648Z,52.07
2022-09-12T20:16:28.772Z,52.27
2022-09-12T20:19:01.377Z,52.90
2022-09-12T20:21:31.617Z,52.66
2022-09-12T20:24:04.722Z,52.08
2022-09-12T20:26:32.337Z,51.64
2022-09-12T20:28:59.905Z,51.35
2022-09-12T20:31:26.837Z,50.64
2022-09-12T20:33:55.023Z,52.66
2022-09-12T20:36:21.986Z,53.60
2022-09-12T20:38:54.301Z,53.85
2022-09-12T20:41:24.821Z,54.93
2022-09-12T20:43:56.479Z,54.90
2022-09-12T20:46:24.821Z,54.36
2022-09-12T20:48:51.776Z,55.01
2022-09-12T20:51:19.801Z,53.82
2022-09-12T20:53:47.164Z,54.45
2022-09-12T20:56:15.057Z,54.84
2022-09-12T20:58:44.363Z,54.67
2022-09-12T21:01:13.650Z,55.12
2022-09-12T21:03:42.263Z,55.11
2022-09-12T21:06:10.517Z,54.68
2022-09-12T21:08:37.659Z,54.78
2022-09-12T21:11:05.275Z,54.77
2022-09-12T21:13:32.278Z,53.14
2022-09-12T21:16:07.259Z,51.93
2022-09-12T21:18:35.195Z,53.04
2022-09-12T21:21:02.242Z,52.90
2022-09-12T21:23:29.923Z,52.00
2022-09-12T21:25:56.710Z,51.88
2022-09-12T21:28:23.487Z,53.89
2022-09-12T21:30:51.103Z,51.98
2022-09-12T21:33:19.586Z,52.60
2022-09-12T21:35:47.524Z,53.28
2022-09-12T21:38:17.478Z,55.24
2022-09-12T21:40:44.531Z,56.20
2022-09-12T21:43:12.999Z,56.35
2022-09-12T21:45:40.677Z,56.46
2022-09-12T21:48:07.923Z,56.68
2022-09-12T21:50:35.118Z,57.02
2022-09-12T21:53:02.043Z,56.63
2022-09-12T21:55:28.749Z,56.59
2022-09-12T21:57:55.585Z,56.95
2022-09-12T22:00:23.115Z,56.97
2022-09-12T22:02:49.797Z,56.47
2022-09-12T22:05:17.297Z,56.27
2022-09-12T22:07:44.246Z,55.65
2022-09-12T22:10:11.123Z,55.98
2022-09-12T22:12:37.751Z,56.48
2022-09-12T22:15:22.964Z,56.35
2022-09-12T22:17:51.914Z,56.65
2022-09-12T22:20:18.817Z,56.57
2022-09-12T22:23:04.153Z,56.79
2022-09-12T22:25:31.007Z,57.06
2022-09-12T22:27:58.340Z,56.83
2022-09-12T22:30:27.193Z,57.03
2022-09-12T22:32:54.063Z,56.92
2022-09-12T22:35:20.979Z,57.42
2022-09-12T22:37:48.024Z,57.63
2022-09-12T22:40:15.627Z,57.89
2022-09-12T22:42:42.625Z,58.83
2022-09-12T22:45:09.712Z,59.83
2022-09-12T22:47:36.516Z,60.03
2022-09-12T22:50:03.736Z,59.47
2022-09-12T22:52:30.410Z,58.33
2022-09-12T22:54:57.247Z,58.37
2022-09-12T22:57:23.954Z,59.04
2022-09-12T22:59:50.593Z,58.68
2022-09-12T23:02:17.329Z,58.59
2022-09-12T23:04:44.147Z,59.32
2022-09-12T23:07:11.036Z,60.55
2022-09-12T23:09:37.814Z,61.58
2022-09-12T23:12:04.597Z,61.84
2022-09-12T23:14:31.297Z,62.05
2022-09-12T23:16:57.950Z,61.84
2022-09-12T23:19:24.532Z,62.98
2022-09-12T23:21:51.120Z,63.10
2022-09-12T23:24:17.867Z,63.05
2022-09-12T23:26:44.485Z,63.26
2022-09-12T23:29:11.383Z,63.72
2022-09-12T23:31:38.132Z,63.91
2022-09-12T23:34:06.240Z,63.49
2022-09-12T23:36:33.614Z,63.38
2022-09-12T23:39:00.400Z,63.06
2022-09-12T23:41:27.426Z,63.42
2022-09-12T23:43:54.107Z,63.14
2022-09-12T23:46:21.234Z,63.29
2022-09-12T23:48:48.939Z,63.59
2022-09-12T23:51:16.317Z,64.13
2022-09-12T23:53:43.230Z,63.63
2022-09-12T23:56:10.748Z,63.67
2022-09-12T23:58:37.604Z,63.79
